Time;durP1;ratioP1;P1;durP2;ratioP2;P2;SDS_P1;SDS_P2;PMS_P1;PMS_P2;Temp;Humidity;BMP_temperature;BMP_pressure;BME280_temperature;BME280_humidity;BME280_pressure;Samples;Min_cycle;Max_cycle;Signal;HPM_P1;HPM_P2
2023/04/19 00:01:10;;;;;;;9.27;5.57;;;;;;;;;;4902001;29;20460;-70
2023/04/19 00:03:36;;;;;;;9.02;5.50;;;;;;;;;;4901614;29;20094;-69
2023/04/19 00:06:02;;;;;;;9.32;5.88;;;;;;;;;;4918667;29;20052;-69
2023/04/19 00:08:28;;;;;;;8.38;6.18;;;;;;;;;;4885516;29;20199;-69
2023/04/19 00:10:54;;;;;;;8.07;5.93;;;;;;;;;;4901227;29;20051;-69
2023/04/19 00:13:21;;;;;;;12.38;5.82;;;;;;;;;;4887085;29;20060;-69
2023/04/19 00:15:47;;;;;;;11.35;6.30;;;;;;;;;;4900442;29;20048;-69
2023/04/19 00:18:13;;;;;;;11.70;6.10;;;;;;;;;;4899728;29;20092;-69
2023/04/19 00:20:39;;;;;;;8.32;5.93;;;;;;;;;;4901396;29;20047;-69
2023/04/19 00:23:06;;;;;;;8.07;6.07;;;;;;;;;;4913123;29;20040;-69
2023/04/19 00:25:33;;;;;;;7.68;5.97;;;;;;;;;;4899474;29;20086;-69
2023/04/19 00:27:59;;;;;;;9.43;6.25;;;;;;;;;;4885763;29;20500;-69
2023/04/19 00:30:25;;;;;;;9.80;6.75;;;;;;;;;;4900539;29;20075;-69
2023/04/19 00:32:51;;;;;;;9.45;5.78;;;;;;;;;;4913370;29;20613;-69
2023/04/19 00:35:18;;;;;;;8.98;5.65;;;;;;;;;;4901156;29;20080;-69
2023/04/19 00:37:44;;;;;;;8.90;6.03;;;;;;;;;;4901201;29;20052;-69
2023/04/19 00:40:10;;;;;;;8.90;6.32;;;7.40;99.90;;;;;;4885391;29;20048;-69
2023/04/19 00:42:37;;;;;;;22.08;6.60;;;;;;;;;;4884923;29;20048;-69
2023/04/19 00:45:03;;;;;;;9.60;5.80;;;;;;;;;;4868917;29;20049;-70
2023/04/19 00:47:29;;;;;;;8.30;6.00;;;8.50;99.90;;;;;;4882199;29;20497;-69
2023/04/19 00:49:55;;;;;;;11.52;6.40;;;;;;;;;;4882104;29;20080;-69
2023/04/19 00:52:22;;;;;;;10.68;6.47;;;;;;;;;;4866863;29;20088;-69
2023/04/19 00:54:48;;;;;;;8.45;6.25;;;;;;;;;;4882160;29;20059;-69
2023/04/19 00:57:15;;;;;;;9.68;6.88;;;8.40;99.90;;;;;;4881804;29;20048;-69
2023/04/19 00:59:41;;;;;;;11.20;7.10;;;;;;;;;;4878739;29;20127;-69
2023/04/19 01:02:08;;;;;;;10.32;5.95;;;8.20;99.90;;;;;;4897174;29;20119;-69
2023/04/19 01:04:35;;;;;;;10.18;6.03;;;;;;;;;;4898579;29;20556;-69
2023/04/19 01:07:02;;;;;;;8.70;6.82;;;;;;;;;;4881858;29;20053;-69
2023/04/19 01:09:28;;;;;;;9.00;6.30;;;;;;;;;;4890149;29;20071;-69
2023/04/19 01:11:54;;;;;;;9.15;6.55;;;;;;;;;;4871991;29;20057;-69
2023/04/19 01:14:20;;;;;;;9.70;7.30;;;;;;;;;;4882552;29;20520;-69
2023/04/19 01:16:46;;;;;;;8.95;6.43;;;;;;;;;;4885798;29;20127;-69
2023/04/19 01:19:12;;;;;;;14.00;7.40;;;;;;;;;;4900130;29;20560;-69
2023/04/19 01:21:39;;;;;;;8.45;6.68;;;;;;;;;;4888740;29;20052;-69
2023/04/19 01:24:05;;;;;;;12.05;6.90;;;7.20;99.90;;;;;;4881676;29;20044;-69
2023/04/19 01:26:31;;;;;;;11.20;7.38;;;;;;;;;;4881577;29;20045;-69
2023/04/19 01:28:57;;;;;;;9.40;6.90;;;;;;;;;;4881410;29;20051;-69
2023/04/19 01:31:23;;;;;;;10.68;6.97;;;;;;;;;;4865881;29;20044;-69
2023/04/19 01:33:49;;;;;;;11.32;7.18;;;;;;;;;;4881339;29;20404;-69
2023/04/19 01:36:15;;;;;;;10.07;7.18;;;;;;;;;;4865835;29;20051;-70
2023/04/19 01:38:42;;;;;;;14.80;7.32;;;;;;;;;;4881495;29;20079;-70
2023/04/19 01:41:08;;;;;;;11.05;7.25;;;;;;;;;;4878775;29;20058;-70
2023/04/19 01:43:34;;;;;;;11.10;7.18;;;;;;;;;;4914235;29;20044;-70
2023/04/19 01:46:00;;;;;;;13.57;7.38;;;;;;;;;;4866073;29;20087;-70
2023/04/19 01:48:26;;;;;;;12.65;7.38;;;;;;;;;;4881393;29;20056;-70
2023/04/19 01:50:52;;;;;;;10.05;7.13;;;;;;;;;;4881600;29;20464;-70
2023/04/19 01:53:18;;;;;;;12.25;8.02;;;;;;;;;;4881758;29;20051;-70
2023/04/19 01:55:45;;;;;;;11.45;7.80;;;;;;;;;;4881340;29;20386;-70
2023/04/19 01:58:11;;;;;;;12.10;8.25;;;;;;;;;;4881482;29;20072;-70
2023/04/19 02:00:37;;;;;;;13.88;8.27;;;;;;;;;;4865945;29;20040;-70
2023/04/19 02:03:03;;;;;;;14.00;8.30;;;;;;;;;;4881164;29;20036;-70
2023/04/19 02:05:29;;;;;;;12.32;8.18;;;;;;;;;;4865681;29;20049;-70
2023/04/19 02:07:56;;;;;;;12.65;8.63;;;;;;;;;;4865595;29;20489;-70
2023/04/19 02:10:22;;;;;;;12.35;8.55;;;;;;;;;;4880824;29;20057;-70
2023/04/19 02:12:48;;;;;;;13.30;9.00;;;;;;;;;;4881749;29;20041;-70
2023/04/19 02:15:14;;;;;;;12.75;9.15;;;;;;;;;;4877130;29;20447;-69
2023/04/19 02:17:40;;;;;;;12.40;8.93;;;;;;;;;;4899650;29;20049;-69
2023/04/19 02:20:09;;;;;;;14.27;9.10;;;;;;;;;;4877573;29;20048;-69
2023/04/19 02:22:35;;;;;;;16.00;9.73;;;;;;;;;;4880960;29;20049;-69
2023/04/19 02:25:01;;;;;;;15.23;8.68;;;;;;;;;;4881330;29;20417;-69
2023/04/19 02:27:28;;;;;;;12.55;8.90;;;7.80;99.90;;;;;;4881040;29;20051;-69
2023/04/19 02:29:55;;;;;;;14.10;9.32;;;;;;;;;;4890451;29;20086;-69
2023/04/19 02:32:21;;;;;;;16.98;10.50;;;;;;;;;;4880892;29;20063;-69
2023/04/19 02:34:47;;;;;;;16.08;10.32;;;;;;;;;;4881244;29;20123;-69
2023/04/19 02:37:13;;;;;;;15.98;9.65;;;;;;;;;;4880772;29;20040;-69
2023/04/19 02:39:41;;;;;;;13.80;9.43;;;;;;;;;;4865483;29;20113;-69
2023/04/19 02:42:07;;;;;;;13.88;9.80;;;;;;;;;;4872670;29;20434;-69
2023/04/19 02:44:33;;;;;;;13.45;10.25;;;;;;;;;;4899798;29;20176;-69
2023/04/19 02:46:59;;;;;;;16.60;9.50;;;;;;;;;;4899338;29;20048;-69
2023/04/19 02:49:25;;;;;;;17.13;9.80;;;;;;;;;;4883627;29;20048;-69
2023/04/19 02:51:52;;;;;;;16.50;10.02;;;;;;;;;;4883441;29;20048;-69
2023/04/19 02:54:18;;;;;;;14.63;9.77;;;;;;;;;;4882277;29;20048;-69
2023/04/19 02:56:44;;;;;;;15.90;10.00;;;;;;;;;;4884044;29;20494;-69
2023/04/19 02:59:10;;;;;;;13.32;9.52;;;;;;;;;;4884192;29;20489;-69
2023/04/19 03:01:36;;;;;;;14.38;9.68;;;;;;;;;;4896513;29;20040;-69
2023/04/19 03:04:02;;;;;;;16.83;10.77;;;;;;;;;;4902929;29;20048;-69
2023/04/19 03:06:28;;;;;;;12.70;9.85;;;;;;;;;;4902425;29;20098;-69
2023/04/19 03:08:54;;;;;;;14.73;9.93;;;6.70;99.90;;;;;;4902493;29;20059;-69
2023/04/19 03:11:20;;;;;;;14.32;9.43;;;;;;;;;;4872912;29;20060;-69
2023/04/19 03:13:46;;;;;;;17.45;9.68;;;;;;;;;;4868541;29;20085;-69
2023/04/19 03:16:12;;;;;;;14.90;9.30;;;;;;;;;;4883812;29;20401;-69
2023/04/19 03:18:38;;;;;;;14.75;9.57;;;;;;;;;;4884067;29;20044;-69
2023/04/19 03:21:07;;;;;;;12.93;9.00;;;;;;;;;;4889387;29;20044;-69
2023/04/19 03:23:34;;;;;;;12.38;8.95;;;;;;;;;;4902522;29;20048;-69
2023/04/19 03:26:00;;;;;;;12.43;8.50;;;;;;;;;;4902138;29;20059;-69
2023/04/19 03:28:26;;;;;;;16.08;8.27;;;7.30;99.90;;;;;;4886893;29;20054;-69
2023/04/19 03:30:52;;;;;;;18.73;8.80;;;7.40;99.90;;;;;;4918753;29;20044;-69
2023/04/19 03:33:18;;;;;;;14.43;8.82;;;;;;;;;;4902163;29;20047;-69
2023/04/19 03:35:44;;;;;;;14.10;9.02;;;;;;;;;;4901750;29;20079;-69
2023/04/19 03:38:10;;;;;;;15.85;8.75;;;;;;;;;;4886442;29;20496;-69
2023/04/19 03:40:37;;;;;;;13.35;8.60;;;;;;;;;;4896082;29;20088;-69
2023/04/19 03:43:03;;;;;;;14.20;9.20;;;;;;;;;;4902499;29;20437;-69
2023/04/19 03:45:30;;;;;;;12.82;8.63;;;;;;;;;;4902011;29;20604;-69
2023/04/19 03:47:56;;;;;;;12.52;8.07;;;;;;;;;;4886401;29;20092;-69
2023/04/19 03:50:22;;;;;;;14.25;8.50;;;;;;;;;;4901470;29;20044;-69
2023/04/19 03:52:48;;;;;;;14.52;8.90;;;;;;;;;;4901609;29;20047;-69
2023/04/19 03:55:14;;;;;;;17.35;9.30;;;;;;;;;;4901224;29;20036;-70
2023/04/19 03:57:40;;;;;;;14.43;8.63;;;;;;;;;;4883180;29;20087;-70
2023/04/19 04:00:07;;;;;;;14.15;8.52;;;;;;;;;;4883226;29;20123;-70
2023/04/19 04:02:33;;;;;;;11.35;8.27;;;;;;;;;;4883009;29;20045;-70
2023/04/19 04:04:59;;;;;;;13.00;8.65;;;;;;;;;;4882369;29;20398;-70
2023/04/19 04:07:25;;;;;;;14.15;8.90;;;;;;;;;;4893683;29;20052;-70
2023/04/19 04:09:52;;;;;;;14.18;8.52;;;;;;;;;;4901530;29;20062;-69
2023/04/19 04:12:18;;;;;;;15.85;8.35;;;;;;;;;;4905094;29;20045;-69
2023/04/19 04:14:44;;;;;;;13.35;7.88;;;;;;;;;;4894479;29;20397;-69
2023/04/19 04:17:10;;;;;;;14.93;8.93;;;;;;;;;;4885892;29;20370;-69
2023/04/19 04:19:36;;;;;;;13.15;8.27;;;;;;;;;;4904826;29;20044;-69
2023/04/19 04:22:03;;;;;;;12.20;7.78;;;6.60;99.90;;;;;;4888868;29;20040;-69
2023/04/19 04:24:31;;;;;;;11.85;8.20;;;;;;;;;;4901281;29;20511;-68
2023/04/19 04:26:59;;;;;;;11.48;7.53;;;;;;;;;;4895524;29;20053;-69
2023/04/19 04:29:26;;;;;;;12.07;7.63;;;;;;;;;;4884162;29;20052;-69
2023/04/19 04:31:52;;;;;;;12.15;7.80;;;;;;;;;;4900876;29;20535;-69
2023/04/19 04:34:19;;;;;;;11.13;7.80;;;;;;;;;;4885576;29;20048;-69
2023/04/19 04:36:46;;;;;;;12.05;7.85;;;;;;;;;;4885289;29;20551;-69
2023/04/19 04:39:12;;;;;;;13.20;7.45;;;;;;;;;;4901169;29;20168;-69
2023/04/19 04:41:41;;;;;;;12.10;8.23;;;;;;;;;;4882853;29;20040;-69
2023/04/19 04:44:07;;;;;;;13.55;7.80;;;;;;;;;;4882482;29;20044;-69
2023/04/19 04:46:34;;;;;;;11.35;7.57;;;;;;;;;;4882168;29;20556;-69
2023/04/19 04:49:00;;;;;;;13.07;8.07;;;;;;;;;;4899375;29;20045;-69
2023/04/19 04:51:26;;;;;;;13.18;8.43;;;;;;;;;;4907803;29;20055;-69
2023/04/19 04:53:52;;;;;;;11.40;8.13;;;;;;;;;;4912059;29;20443;-69
2023/04/19 04:56:19;;;;;;;11.45;7.82;;;;;;;;;;4881999;29;20084;-69
2023/04/19 04:58:45;;;;;;;8.45;7.05;;;;;;;;;;4882027;29;20047;-69
2023/04/19 05:01:11;;;;;;;15.38;7.53;;;;;;;;;;4881968;29;20100;-69
2023/04/19 05:03:37;;;;;;;9.52;7.07;;;;;;;;;;4898640;29;20036;-69
2023/04/19 05:06:03;;;;;;;9.95;6.72;;;;;;;;;;4881806;29;20048;-69
2023/04/19 05:08:29;;;;;;;13.27;8.25;;;;;;;;;;4881564;29;20072;-69
2023/04/19 05:10:55;;;;;;;9.52;6.38;;;;;;;;;;4885591;29;20051;-69
2023/04/19 05:13:22;;;;;;;9.50;6.75;;;;;;;;;;4885056;29;20412;-69
2023/04/19 05:15:48;;;;;;;9.32;6.45;;;;;;;;;;4900584;29;20120;-69
2023/04/19 05:18:14;;;;;;;10.10;6.65;;;;;;;;;;4900014;29;20501;-69
2023/04/19 05:20:39;;;;;;;10.05;6.22;;;6.10;99.90;;;;;;4889566;29;20033;-70
2023/04/19 05:23:07;;;;;;;37.65;8.73;;;;;;;;;;4912344;29;20114;-69
2023/04/19 05:25:33;;;;;;;13.18;6.90;;;;;;;;;;4893972;29;20107;-69
2023/04/19 05:27:59;;;;;;;14.32;7.05;;;;;;;;;;4892104;29;20087;-69
2023/04/19 05:30:25;;;;;;;13.68;6.20;;;;;;;;;;4890583;29;20124;-69
2023/04/19 05:32:51;;;;;;;9.50;6.35;;;;;;;;;;4891208;29;20040;-69
2023/04/19 05:35:18;;;;;;;8.77;5.80;;;;;;;;;;4889132;29;20049;-69
2023/04/19 05:37:44;;;;;;;11.52;5.95;;;;;;;;;;4890753;29;20119;-69
2023/04/19 05:40:11;;;;;;;11.15;6.10;;;;;;;;;;4893351;29;20489;-69
2023/04/19 05:42:38;;;;;;;11.20;6.13;;;7.00;99.90;;;;;;4873629;29;20055;-69
2023/04/19 05:45:05;;;;;;;8.52;5.50;;;;;;;;;;4907550;29;20048;-69
2023/04/19 05:47:31;;;;;;;10.48;5.85;;;;;;;;;;4887897;29;20052;-69
2023/04/19 05:49:57;;;;;;;6.32;4.97;;;;;;;;;;4891097;29;20044;-69
2023/04/19 05:52:23;;;;;;;11.20;5.53;;;;;;;;;;4874116;29;20044;-69
2023/04/19 05:54:49;;;;;;;13.48;5.82;;;;;;;;;;4890139;29;20082;-69
2023/04/19 05:57:15;;;;;;;9.45;4.82;;;;;;;;;;4907756;29;20051;-69
2023/04/19 05:59:41;;;;;;;6.00;4.35;;;;;;;;;;4889585;29;20123;-69
2023/04/19 06:02:07;;;;;;;6.95;4.93;;;;;;;;;;4907278;29;20405;-69
2023/04/19 06:04:34;;;;;;;8.68;4.90;;;;;;;;;;4875437;29;20523;-69
2023/04/19 06:07:00;;;;;;;9.15;4.70;;;;;;;;;;4905879;29;20040;-69
2023/04/19 06:09:26;;;;;;;8.90;4.75;;;;;;;;;;4874724;29;20060;-69
2023/04/19 06:11:53;;;;;;;14.43;5.32;;;;;;;;;;4875110;29;20489;-69
2023/04/19 06:14:19;;;;;;;6.97;4.75;;;;;;;;;;4888909;29;20044;-69
2023/04/19 06:16:46;;;;;;;6.80;4.43;;;;;;;;;;4890380;29;20040;-69
2023/04/19 06:19:12;;;;;;;8.93;4.50;;;;;;;;;;4874977;29;20079;-69
2023/04/19 06:21:38;;;;;;;9.65;5.13;;;;;;;;;;4888948;29;20532;-70
2023/04/19 06:24:06;;;;;;;7.78;4.53;;;7.60;99.90;;;;;;4907471;29;20168;-69
2023/04/19 06:26:32;;;;;;;7.07;4.55;;;;;;;;;;4890091;29;20516;-69
2023/04/19 06:28:58;;;;;;;6.53;4.38;;;;;;;;;;4913606;29;20032;-69
2023/04/19 06:31:24;;;;;;;8.07;4.38;;;;;;;;;;4900381;29;20044;-69
2023/04/19 06:33:50;;;;;;;9.00;4.70;;;;;;;;;;4890208;29;20490;-70
2023/04/19 06:36:16;;;;;;;6.20;4.05;;;;;;;;;;4889386;29;20049;-70
2023/04/19 06:38:45;;;;;;;9.63;4.57;;;;;;;;;;4898721;29;20040;-70
2023/04/19 06:41:12;;;;;;;11.63;4.40;;;;;;;;;;4889352;29;20040;-69
2023/04/19 06:43:39;;;;;;;6.07;4.20;;;;;;;;;;4892752;29;20036;-69
2023/04/19 06:46:05;;;;;;;6.20;4.25;;;;;;;;;;4877494;29;20040;-70
2023/04/19 06:48:33;;;;;;;7.28;4.78;;;8.00;99.90;;;;;;4877812;29;20044;-70
2023/04/19 06:50:59;;;;;;;6.38;4.07;;;;;;;;;;4893954;29;20138;-70
2023/04/19 06:53:28;;;;;;;10.60;4.22;;;;;;;;;;4878218;29;20051;-69
2023/04/19 06:56:03;;;;;;;6.20;3.80;;;8.30;99.90;;;;;;4893979;29;20453;-69
2023/04/19 06:58:30;;;;;;;9.55;4.28;;;;;;;;;;4893745;29;20044;-69
2023/04/19 07:00:56;;;;;;;6.45;3.75;;;;;;;;;;4893942;29;20060;-69
2023/04/19 07:03:23;;;;;;;8.27;4.00;;;;;;;;;;4910263;29;20041;-69
2023/04/19 07:05:51;;;;;;;6.70;3.80;;;;;;;;;;4893999;29;20080;-73
2023/04/19 07:08:17;;;;;;;5.65;3.80;;;;;;;;;;4893775;29;20048;-68
2023/04/19 07:10:43;;;;;;;6.50;4.00;;;;;;;;;;4893486;29;20465;-69
2023/04/19 07:13:12;;;;;;;5.53;3.90;;;8.30;99.90;;;;;;4893403;29;20044;-68
2023/04/19 07:15:38;;;;;;;5.80;3.47;;;;;;;;;;4892042;29;20044;-69
2023/04/19 07:18:04;;;;;;;4.88;3.72;;;;;;;;;;4910292;29;20036;-69
2023/04/19 07:20:30;;;;;;;5.85;3.53;;;;;;;;;;4892761;29;20481;-69
2023/04/19 07:22:59;;;;;;;5.57;3.78;;;;;;;;;;4891458;29;20048;-69
2023/04/19 07:25:26;;;;;;;7.18;3.97;;;;;;;;;;4880706;29;20043;-69
2023/04/19 07:27:53;;;;;;;5.53;3.42;;;;;;;;;;4899760;29;20079;-69
2023/04/19 07:30:19;;;;;;;6.43;3.65;;;;;;;;;;4890636;29;20392;-69
2023/04/19 07:32:45;;;;;;;10.25;3.83;;;;;;;;;;4876051;29;21250;-69
2023/04/19 07:35:11;;;;;;;7.10;3.50;;;;;;;;;;4870211;29;20092;-69
2023/04/19 07:37:38;;;;;;;5.18;3.38;;;;;;;;;;4886476;29;20060;-69
2023/04/19 07:40:04;;;;;;;5.30;3.10;;;;;;;;;;4871995;29;20543;-68
2023/04/19 07:42:30;;;;;;;4.55;3.05;;;;;;;;;;4888055;29;20036;-68
2023/04/19 07:44:58;;;;;;;9.15;3.25;;;;;;;;;;4889080;29;20047;-69
2023/04/19 07:47:24;;;;;;;3.95;2.85;;;;;;;;;;4877340;29;20164;-69
2023/04/19 07:49:55;;;;;;;5.10;2.85;;;;;;;;;;4879290;29;20051;-69
2023/04/19 07:52:21;;;;;;;3.92;2.80;;;;;;;;;;4880441;29;20052;-69
2023/04/19 07:54:47;;;;;;;6.93;2.50;;;;;;;;;;4898292;29;20609;-68
2023/04/19 07:57:13;;;;;;;4.05;2.70;;;;;;;;;;4899555;29;20126;-69
2023/04/19 07:59:40;;;;;;;3.88;2.63;;;;;;;;;;4890679;29;20048;-68
2023/04/19 08:02:06;;;;;;;4.32;2.50;;;;;;;;;;4885836;29;20048;-69
2023/04/19 08:04:32;;;;;;;6.47;3.10;;;;;;;;;;4887831;29;20390;-69
2023/04/19 08:06:59;;;;;;;4.70;2.50;;;;;;;;;;4889724;29;20039;-69
2023/04/19 08:09:25;;;;;;;5.00;3.00;;;;;;;;;;4889257;29;20084;-69
2023/04/19 08:11:52;;;;;;;3.28;2.78;;;;;;;;;;4889088;29;20053;-69
2023/04/19 08:14:18;;;;;;;5.43;2.58;;;;;;;;;;4890888;29;20044;-68
2023/04/19 08:16:44;;;;;;;3.90;2.75;;;;;;;;;;4893647;29;20063;-69
2023/04/19 08:19:10;;;;;;;7.78;2.60;;;;;;;;;;4895429;29;20445;-69
2023/04/19 08:21:36;;;;;;;3.33;2.60;;;;;;;;;;4896580;29;20427;-68
2023/04/19 08:24:02;;;;;;;4.05;2.60;;;;;;;;;;4914929;29;20044;-69
2023/04/19 08:26:28;;;;;;;3.72;2.72;;;;;;;;;;4898882;29;20044;-70
2023/04/19 08:28:55;;;;;;;4.45;2.83;;;;;;;;;;4905014;29;20080;-69
2023/04/19 08:31:21;;;;;;;4.68;2.45;;;;;;;;;;4883953;29;20502;-69
2023/04/19 08:33:47;;;;;;;4.78;2.67;;;;;;;;;;4889307;29;20040;-68
2023/04/19 08:36:13;;;;;;;4.28;2.50;;;;;;;;;;4871211;29;20048;-69
2023/04/19 08:38:40;;;;;;;7.13;2.70;;;;;;;;;;4873051;29;20126;-68
2023/04/19 08:41:06;;;;;;;7.78;2.50;;;;;;;;;;4892214;29;20062;-69
2023/04/19 08:43:35;;;;;;;3.95;2.70;;;;;;;;;;4877303;29;20089;-69
2023/04/19 08:46:02;;;;;;;4.43;2.65;;;10.70;99.90;;;;;;4893422;29;20047;-73
2023/04/19 08:48:29;;;;;;;3.22;2.47;;;;;;;;;;4911301;29;20032;-69
2023/04/19 08:50:57;;;;;;;3.70;2.55;;;;;;;;;;4911592;29;20069;-68
2023/04/19 08:53:27;;;;;;;4.05;2.45;;;10.70;99.90;;;;;;4914244;29;20092;-69
2023/04/19 08:55:57;;;;;;;4.22;2.58;;;;;;;;;;4882293;29;20153;-69
2023/04/19 08:58:23;;;;;;;3.92;2.55;;;;;;;;;;4875744;29;20041;-69
2023/04/19 09:00:50;;;;;;;7.03;2.63;;;;;;;;;;4884935;29;20040;-69
2023/04/19 09:03:16;;;;;;;5.10;2.72;;;;;;;;;;4884275;29;20040;-69
2023/04/19 09:05:42;;;;;;;3.42;2.50;;;;;;;;;;4887197;29;20574;-69
2023/04/19 09:08:26;;;;;;;5.07;2.60;;;;;;;;;;4888874;29;20037;-68
2023/04/19 09:10:56;;;;;;;6.35;3.03;;;11.30;99.90;;;;;;4884318;29;20052;-70
2023/04/19 09:13:22;;;;;;;3.28;2.22;;;;;;;;;;4891503;29;20040;-69
2023/04/19 09:15:49;;;;;;;3.08;2.50;;;;;;;;;;4875279;29;20508;-70
2023/04/19 09:18:16;;;;;;;2.88;2.35;;;;;;;;;;4873203;29;20036;-70
2023/04/19 09:20:43;;;;;;;3.22;2.28;;;;;;;;;;4889350;29;20096;-69
2023/04/19 09:23:14;;;;;;;2.97;2.38;;;11.50;99.90;;;;;;4891605;29;20035;-69
2023/04/19 09:26:00;;;;;;;3.55;2.20;;;11.80;99.90;;;;;;4911120;29;20569;-69
2023/04/19 09:28:27;;;;;;;3.33;2.22;;;11.70;99.90;;;;;;4893614;29;20048;-68
2023/04/19 09:30:54;;;;;;;3.75;2.30;;;;;;;;;;4894528;29;20485;-69
2023/04/19 09:33:34;;;;;;;4.97;2.58;;;;;;;;;;4897301;29;20054;-68
2023/04/19 09:36:00;;;;;;;5.13;2.50;;;11.90;99.90;;;;;;4913290;29;20040;-68
2023/04/19 09:38:27;;;;;;;5.47;2.50;;;;;;;;;;4886439;29;20076;-69
2023/04/19 09:41:04;;;;;;;6.30;2.20;;;;;;;;;;4883880;29;20052;-68
2023/04/19 09:43:30;;;;;;;3.22;2.30;;;;;;;;;;4901603;29;20041;-68
2023/04/19 09:45:57;;;;;;;5.35;2.15;;;;;;;;;;4885579;29;20048;-68
2023/04/19 09:48:23;;;;;;;2.95;2.30;;;;;;;;;;4889889;29;20045;-68
2023/04/19 09:50:59;;;;;;;4.65;2.10;;;12.40;99.90;;;;;;4906214;29;20123;-68
2023/04/19 09:53:27;;;;;;;3.60;2.50;;;11.90;99.90;;;;;;4891076;29;20055;-68
2023/04/19 09:55:53;;;;;;;5.15;2.17;;;;;;;;;;4877999;29;20072;-69
2023/04/19 09:58:20;;;;;;;2.28;1.88;;;12.50;99.90;;;;;;4878392;29;20092;-68
2023/04/19 10:00:47;;;;;;;3.55;1.95;;;12.60;99.90;;;;;;4912120;29;20044;-68
2023/04/19 10:03:16;;;;;;;6.13;2.10;;;;;;;;;;4913639;29;20116;-69
2023/04/19 10:05:43;;;;;;;7.47;1.95;;;;;;;;;;4918694;29;20236;-70
2023/04/19 10:08:13;;;;;;;3.90;1.98;;;12.90;99.90;;;;;;4874338;29;20037;-69
2023/04/19 10:10:40;;;;;;;5.55;2.20;;;;;;;;;;4888835;29;20072;-69
2023/04/19 10:13:10;;;;;;;4.07;2.00;;;12.70;99.90;;;;;;4889764;29;20051;-70
2023/04/19 10:15:36;;;;;;;4.82;2.28;;;;;;;;;;4887863;29;20045;-70
2023/04/19 10:18:04;;;;;;;4.15;2.63;;;;;;;;;;4890950;29;20045;-69
2023/04/19 10:20:37;;;;;;;5.20;2.75;;;13.00;99.90;;;;;;4908549;29;20047;-69
2023/04/19 10:23:06;;;;;;;4.50;2.63;;;;;;;;;;4893184;29;20049;-69
2023/04/19 10:25:33;;;;;;;5.03;3.05;;;;;;;;;;4894538;29;20051;-68
2023/04/19 10:27:59;;;;;;;3.55;2.83;;;;;;;;;;4896642;29;20059;-68
2023/04/19 10:30:26;;;;;;;4.97;2.83;;;;;;;;;;4898116;29;20409;-68
2023/04/19 10:32:56;;;;;;;4.32;2.70;;;;;;;;;;4899518;29;20217;-68
2023/04/19 10:35:30;;;;;;;5.03;2.92;;;13.10;99.90;;;;;;4900702;29;20044;-68
2023/04/19 10:38:11;;;;;;;4.25;2.80;;;13.10;99.90;;;;;;4895168;29;20045;-68
2023/04/19 10:40:56;;;;;;;6.25;2.83;;;;;;;;;;4885005;29;20040;-68
2023/04/19 10:43:33;;;;;;;6.22;2.50;;;;;;;;;;4889493;29;20036;-69
2023/04/19 10:46:18;;;;;;;6.25;2.58;;;13.30;99.90;;;;;;4887137;29;20666;-69
2023/04/19 10:48:57;;;;;;;5.22;2.65;;;13.30;99.90;;;;;;4889731;29;20492;-69
2023/04/19 10:51:27;;;;;;;5.25;2.58;;;13.30;99.90;;;;;;4877366;29;20096;-68
2023/04/19 10:54:04;;;;;;;4.20;2.30;;;13.50;99.90;;;;;;4894659;29;20496;-69
2023/04/19 10:56:32;;;;;;;6.20;2.60;;;13.70;99.90;;;;;;4910312;29;20091;-68
2023/04/19 10:59:06;;;;;;;4.85;2.42;;;13.50;99.90;;;;;;4896644;29;20053;-68
2023/04/19 11:01:35;;;;;;;8.00;2.60;;;13.40;99.90;;;;;;4895857;29;20055;-68
2023/04/19 11:04:02;;;;;;;6.30;2.10;;;;;;;;;;4911317;29;20040;-68
2023/04/19 11:06:28;;;;;;;3.22;2.00;;;;;;;;;;4891323;29;20056;-68
2023/04/19 11:08:54;;;;;;;3.05;2.08;;;;;;;;;;4871522;29;20048;-69
2023/04/19 11:11:20;;;;;;;7.07;2.15;;;;;;;;;;4902420;29;20044;-68
2023/04/19 11:13:47;;;;;;;4.57;2.00;;;;;;;;;;4901756;29;20044;-69
2023/04/19 11:16:13;;;;;;;4.93;1.85;;;;;;;;;;4883268;29;20380;-69
2023/04/19 11:18:39;;;;;;;4.43;1.90;;;;;;;;;;4898694;29;20044;-69
2023/04/19 11:21:05;;;;;;;3.35;1.92;;;;;;;;;;4892130;29;20044;-69
2023/04/19 11:23:31;;;;;;;7.45;2.30;;;;;;;;;;4883832;29;20055;-69
2023/04/19 11:25:58;;;;;;;3.38;2.10;;;13.60;99.90;;;;;;4886067;29;20037;-69
2023/04/19 11:28:24;;;;;;;3.33;1.98;;;;;;;;;;4887834;29;20035;-68
2023/04/19 11:30:50;;;;;;;2.35;1.98;;;;;;;;;;4886590;29;20078;-68
2023/04/19 11:33:23;;;;;;;4.68;1.88;;;14.40;99.90;;;;;;4883940;29;20386;-68
2023/04/19 11:35:50;;;;;;;4.28;2.20;;;;;;;;;;4873386;29;20441;-69
2023/04/19 11:38:16;;;;;;;4.35;2.25;;;;;;;;;;4893486;29;20088;-69
2023/04/19 11:40:42;;;;;;;3.58;2.03;;;;;;;;;;4884648;29;20040;-68
2023/04/19 11:43:08;;;;;;;4.88;2.30;;;;;;;;;;4883264;29;20041;-69
2023/04/19 11:45:36;;;;;;;2.67;1.88;;;;;;;;;;4884764;29;20048;-68
2023/04/19 11:48:03;;;;;;;3.72;2.22;;;14.70;99.90;;;;;;4902701;29;20040;-69
2023/04/19 11:50:32;;;;;;;4.78;1.95;;;14.20;99.90;;;;;;4896183;29;20103;-69
2023/04/19 11:52:58;;;;;;;4.10;2.05;;;;;;;;;;4902172;29;20079;-69
2023/04/19 11:55:25;;;;;;;3.58;2.13;;;;;;;;;;4885376;29;20047;-69
2023/04/19 11:57:51;;;;;;;3.42;2.08;;;14.90;99.90;;;;;;4887289;29;20046;-69
2023/04/19 12:00:27;;;;;;;3.90;1.85;;;14.30;99.90;;;;;;4879714;29;20409;-68
2023/04/19 12:02:53;;;;;;;4.68;1.70;;;14.10;99.90;;;;;;4889402;29;20091;-68
2023/04/19 12:05:19;;;;;;;5.40;1.80;;;;;;;;;;4883000;29;20549;-69
2023/04/19 12:07:57;;;;;;;3.25;1.80;;;14.20;99.90;;;;;;4899687;29;20051;-69
2023/04/19 12:10:23;;;;;;;3.10;1.88;;;14.40;99.90;;;;;;4901085;29;20052;-69
2023/04/19 12:12:49;;;;;;;3.72;1.90;;;;;;;;;;4901492;29;20078;-69
2023/04/19 12:15:15;;;;;;;3.38;2.00;;;14.40;99.90;;;;;;4886281;29;20116;-69
2023/04/19 12:18:01;;;;;;;3.63;2.45;;;14.20;99.90;;;;;;4885225;29;20510;-69
2023/04/19 12:20:31;;;;;;;4.47;2.10;;;15.00;99.90;;;;;;4890180;29;20041;-68
2023/04/19 12:22:58;;;;;;;4.05;2.30;;;;;;;;;;4901384;29;20051;-69
2023/04/19 12:25:31;;;;;;;6.65;2.38;;;14.60;99.90;;;;;;4901505;29;20040;-69
2023/04/19 12:27:58;;;;;;;3.70;2.53;;;;;;;;;;4881726;29;20107;-69
2023/04/19 12:30:25;;;;;;;3.83;2.20;;;;;;;;;;4882462;29;20049;-68
2023/04/19 12:32:54;;;;;;;4.30;2.30;;;;;;;;;;4867377;29;20048;-68
2023/04/19 12:35:21;;;;;;;6.20;2.50;;;;;;;;;;4882399;29;20051;-67
2023/04/19 12:37:47;;;;;;;6.70;2.70;;;;;;;;;;4882361;29;20048;-68
2023/04/19 12:40:14;;;;;;;5.88;2.97;;;13.70;99.90;;;;;;4867003;29;20057;-68
2023/04/19 12:42:40;;;;;;;6.57;2.58;;;;;;;;;;4895785;29;20180;-68
2023/04/19 12:45:06;;;;;;;6.22;2.83;;;15.50;99.90;;;;;;4901003;29;20040;-68
2023/04/19 12:47:32;;;;;;;3.25;2.80;;;;;;;;;;4887614;29;20505;-68
2023/04/19 12:49:58;;;;;;;7.38;2.70;;;;;;;;;;4898804;29;20052;-69
2023/04/19 12:52:25;;;;;;;6.38;2.95;;;14.40;99.90;;;;;;4888765;29;20040;-70
2023/04/19 12:54:51;;;;;;;4.80;3.20;;;;;;;;;;4881906;29;20079;-69
2023/04/19 12:57:17;;;;;;;6.60;3.00;;;;;;;;;;4890561;29;20051;-69
2023/04/19 12:59:43;;;;;;;5.78;2.78;;;;;;;;;;4895664;29;20049;-69
2023/04/19 13:02:09;;;;;;;9.02;3.15;;;;;;;;;;4874694;29;20044;-69
2023/04/19 13:04:35;;;;;;;5.45;2.78;;;;;;;;;;4900626;29;20095;-69
2023/04/19 13:07:01;;;;;;;7.20;2.72;;;;;;;;;;4900604;29;20040;-69
2023/04/19 13:09:28;;;;;;;6.68;3.10;;;;;;;;;;4900026;29;20048;-69
2023/04/19 13:11:55;;;;;;;8.20;3.63;;;;;;;;;;4894447;29;20129;-68
2023/04/19 13:14:21;;;;;;;6.78;3.15;;;14.40;99.90;;;;;;4898538;29;20059;-68
2023/04/19 13:16:47;;;;;;;8.15;2.80;;;;;;;;;;4895730;29;20057;-68
2023/04/19 13:19:13;;;;;;;5.93;3.20;;;;;;;;;;4884195;29;20048;-68
2023/04/19 13:21:39;;;;;;;6.07;2.95;;;;;;;;;;4881901;29;20040;-68
2023/04/19 13:24:05;;;;;;;6.63;3.28;;;14.40;99.90;;;;;;4881720;29;20040;-68
2023/04/19 13:26:33;;;;;;;5.50;2.92;;;;;;;;;;4866176;29;20056;-68
2023/04/19 13:28:59;;;;;;;5.80;3.28;;;;;;;;;;4916872;29;20055;-68
2023/04/19 13:31:25;;;;;;;4.93;3.47;;;;;;;;;;4899787;29;20044;-68
2023/04/19 13:33:52;;;;;;;5.72;3.15;;;14.40;99.90;;;;;;4900018;29;20565;-68
2023/04/19 13:36:18;;;;;;;4.70;2.92;;;;;;;;;;4886082;29;20401;-68
2023/04/19 13:38:44;;;;;;;4.07;3.00;;;;;;;;;;4880894;29;20512;-69
2023/04/19 13:41:10;;;;;;;5.45;2.90;;;;;;;;;;4893332;29;20079;-68
2023/04/19 13:43:36;;;;;;;6.43;3.47;;;;;;;;;;4880536;29;20040;-69
2023/04/19 13:46:02;;;;;;;8.32;3.60;;;15.70;99.90;;;;;;4892379;29;20092;-68
2023/04/19 13:48:28;;;;;;;7.78;3.65;;;;;;;;;;4881351;29;20045;-69
2023/04/19 13:50:55;;;;;;;5.10;2.97;;;;;;;;;;4889724;29;20068;-69
2023/04/19 13:53:21;;;;;;;4.78;3.17;;;;;;;;;;4899973;29;20040;-70
2023/04/19 13:55:47;;;;;;;5.95;3.15;;;;;;;;;;4884182;29;20054;-69
2023/04/19 13:58:13;;;;;;;5.20;3.13;;;;;;;;;;4900308;29;20044;-70
2023/04/19 14:00:39;;;;;;;6.10;2.92;;;;;;;;;;4902881;29;20047;-69
2023/04/19 14:03:05;;;;;;;4.63;2.97;;;;;;;;;;4916323;29;20036;-69
2023/04/19 14:05:31;;;;;;;4.38;2.88;;;14.70;99.90;;;;;;4900062;29;20496;-69
2023/04/19 14:07:58;;;;;;;8.38;3.20;;;;;;;;;;4916617;29;20040;-69
2023/04/19 14:10:24;;;;;;;8.05;3.55;;;15.40;99.90;;;;;;4888860;29;20061;-68
2023/04/19 14:12:51;;;;;;;6.60;3.40;;;15.40;99.90;;;;;;4899686;29;20059;-68
2023/04/19 14:15:22;;;;;;;5.32;3.58;;;14.70;99.90;;;;;;4899774;29;20489;-72